createdAt,value
2018-01-15T00:02:26.927Z,-0.20
2018-01-15T00:04:54.476Z,-0.20
2018-01-15T00:07:22.769Z,-0.20
2018-01-15T00:09:50.299Z,-0.30
2018-01-15T00:12:17.836Z,-0.20
2018-01-15T00:14:45.392Z,-0.20
2018-01-15T00:17:12.915Z,-0.20
2018-01-15T00:19:41.203Z,-0.30
2018-01-15T00:22:08.736Z,-0.30
2018-01-15T00:24:36.262Z,-0.30
2018-01-15T00:27:03.780Z,-0.30
2018-01-15T00:29:31.318Z,-0.30
2018-01-15T00:31:58.833Z,-0.30
2018-01-15T00:34:26.358Z,-0.30
2018-01-15T00:36:53.880Z,-0.30
2018-01-15T00:39:22.282Z,-0.40
2018-01-15T00:41:50.563Z,-0.40
2018-01-15T00:44:18.058Z,-0.40
2018-01-15T00:46:45.608Z,-0.40
2018-01-15T00:49:13.149Z,-0.50
2018-01-15T00:51:40.694Z,-0.50
2018-01-15T00:54:08.237Z,-0.50
2018-01-15T00:56:35.764Z,-0.50
2018-01-15T00:59:03.321Z,-0.50
2018-01-15T01:01:30.844Z,-0.50
2018-01-15T01:03:58.375Z,-0.50
2018-01-15T01:06:25.911Z,-0.50
2018-01-15T01:08:54.260Z,-0.50
2018-01-15T01:11:21.782Z,-0.60
2018-01-15T01:13:49.327Z,-0.50
2018-01-15T01:16:16.861Z,-0.60
2018-01-15T01:18:45.162Z,-0.60
2018-01-15T01:21:12.678Z,-0.60
2018-01-15T01:23:40.196Z,-0.60
2018-01-15T01:26:07.729Z,-0.60
2018-01-15T01:28:35.254Z,-0.70
2018-01-15T01:31:02.793Z,-0.70
2018-01-15T01:33:30.311Z,-0.80
2018-01-15T01:35:57.872Z,-0.90
2018-01-15T01:38:25.399Z,-0.80
2018-01-15T01:40:52.912Z,-0.80
2018-01-15T01:43:20.463Z,-0.80
2018-01-15T01:45:48.020Z,-0.80
2018-01-15T01:48:15.560Z,-0.90
2018-01-15T01:50:43.087Z,-0.90
2018-01-15T01:53:10.624Z,-0.90
2018-01-15T01:55:38.143Z,-0.90
2018-01-15T01:58:05.677Z,-0.90
2018-01-15T02:00:33.943Z,-0.90
2018-01-15T02:03:01.468Z,-0.90
2018-01-15T02:05:28.988Z,-0.90
2018-01-15T02:07:56.533Z,-0.90
2018-01-15T02:10:24.821Z,-0.90
2018-01-15T02:12:52.372Z,-0.90
2018-01-15T02:15:19.879Z,-0.90
2018-01-15T02:17:47.388Z,-0.90
2018-01-15T02:20:15.685Z,-0.90
2018-01-15T02:22:43.197Z,-0.90
2018-01-15T02:25:10.733Z,-0.90
2018-01-15T02:27:38.271Z,-0.80
2018-01-15T02:30:05.792Z,-0.90
2018-01-15T02:32:34.100Z,-0.90
2018-01-15T02:35:01.639Z,-0.90
2018-01-15T02:37:29.967Z,-0.80
2018-01-15T02:39:57.502Z,-0.80
2018-01-15T02:42:25.054Z,-0.80
2018-01-15T02:44:52.591Z,-0.70
2018-01-15T02:47:20.119Z,-0.70
2018-01-15T02:49:47.655Z,-0.60
2018-01-15T02:52:15.157Z,-0.60
2018-01-15T02:54:43.460Z,-0.70
2018-01-15T02:57:10.985Z,-0.70
2018-01-15T02:59:38.519Z,-0.60
2018-01-15T03:02:06.056Z,-0.60
2018-01-15T03:04:33.585Z,-0.50
2018-01-15T03:07:01.115Z,-0.40
2018-01-15T03:09:28.643Z,-0.40
2018-01-15T03:11:56.195Z,-0.40
2018-01-15T03:14:23.703Z,-0.40
2018-01-15T03:16:52.008Z,-0.30
2018-01-15T03:19:19.531Z,-0.30
2018-01-15T03:21:47.830Z,-0.30
2018-01-15T03:24:15.363Z,-0.30
2018-01-15T03:26:42.875Z,-0.30
2018-01-15T03:29:10.422Z,-0.20
2018-01-15T03:31:37.955Z,-0.20
2018-01-15T03:34:06.245Z,-0.20
2018-01-15T03:36:33.783Z,-0.20
2018-01-15T03:39:02.055Z,-0.20
2018-01-15T03:41:29.607Z,-0.20
2018-01-15T03:43:57.140Z,-0.20
2018-01-15T03:46:24.677Z,-0.10
2018-01-15T03:48:52.196Z,-0.10
2018-01-15T03:51:20.480Z,-0.10
2018-01-15T03:53:48.805Z,0.00
2018-01-15T03:56:16.350Z,0.00
2018-01-15T03:58:43.861Z,0.00
2018-01-15T04:01:12.145Z,0.10
2018-01-15T04:03:40.459Z,0.10
2018-01-15T04:06:07.980Z,0.10
2018-01-15T04:08:36.292Z,0.00
2018-01-15T04:11:03.861Z,0.00
2018-01-15T04:13:31.369Z,0.00
2018-01-15T04:15:58.876Z,0.00
2018-01-15T04:18:26.427Z,0.00
2018-01-15T04:20:53.923Z,0.10
2018-01-15T04:23:21.453Z,0.10
2018-01-15T04:25:48.952Z,0.10
2018-01-15T04:28:16.487Z,0.20
2018-01-15T04:30:43.993Z,0.20
2018-01-15T04:33:12.293Z,0.20
2018-01-15T04:35:39.824Z,0.20
2018-01-15T04:38:07.330Z,0.30
2018-01-15T04:40:34.880Z,0.30
2018-01-15T04:43:03.164Z,0.30
2018-01-15T04:45:30.672Z,0.30
2018-01-15T04:47:58.968Z,0.30
2018-01-15T04:50:26.511Z,0.30
2018-01-15T04:52:54.783Z,0.30
2018-01-15T04:55:23.085Z,0.30
2018-01-15T04:57:50.955Z,0.30
2018-01-15T05:00:18.488Z,0.20
2018-01-15T05:02:46.080Z,0.20
2018-01-15T05:05:13.603Z,0.00
2018-01-15T05:07:41.898Z,-0.10
2018-01-15T05:10:09.439Z,-0.10
2018-01-15T05:12:37.713Z,-0.20
2018-01-15T05:15:06.016Z,-0.20
2018-01-15T05:17:33.536Z,-0.20
2018-01-15T05:20:01.061Z,-0.20
2018-01-15T05:22:28.608Z,-0.20
2018-01-15T05:24:56.136Z,-0.20
2018-01-15T05:27:23.710Z,-0.20
2018-01-15T05:29:51.248Z,-0.20
2018-01-15T05:32:19.539Z,-0.20
2018-01-15T05:34:47.057Z,-0.10
2018-01-15T05:37:14.622Z,-0.10
2018-01-15T05:39:42.132Z,-0.10
2018-01-15T05:42:10.409Z,-0.10
2018-01-15T05:44:37.931Z,-0.20
2018-01-15T05:47:06.267Z,-0.20
2018-01-15T05:49:33.792Z,-0.20
2018-01-15T05:52:01.294Z,-0.20
2018-01-15T05:54:28.818Z,-0.20
2018-01-15T05:56:57.092Z,-0.20
2018-01-15T05:59:24.634Z,-0.20
2018-01-15T06:01:52.180Z,-0.20
2018-01-15T06:04:19.743Z,-0.30
2018-01-15T06:06:48.047Z,-0.30
2018-01-15T06:09:15.560Z,-0.40
2018-01-15T06:11:43.123Z,-0.30
2018-01-15T06:14:10.655Z,-0.30
2018-01-15T06:16:38.183Z,-0.40
2018-01-15T06:19:05.842Z,-0.40
2018-01-15T06:21:33.974Z,-0.40
2018-01-15T06:24:02.318Z,-0.40
2018-01-15T06:26:29.814Z,-0.40
2018-01-15T06:28:58.137Z,-0.30
2018-01-15T06:31:25.661Z,-0.40
2018-01-15T06:33:53.963Z,-0.30
2018-01-15T06:36:21.481Z,-0.30
2018-01-15T06:38:49.028Z,-0.20
2018-01-15T06:41:16.541Z,-0.20
2018-01-15T06:43:44.125Z,-0.20
2018-01-15T06:46:11.638Z,-0.20
2018-01-15T06:48:39.187Z,-0.10
2018-01-15T06:51:07.456Z,-0.20
2018-01-15T06:53:35.735Z,-0.20
2018-01-15T06:56:04.040Z,-0.20
2018-01-15T06:58:31.586Z,-0.20
2018-01-15T07:00:59.130Z,-0.10
2018-01-15T07:03:26.668Z,0.00
2018-01-15T07:05:54.283Z,0.00
2018-01-15T07:08:21.774Z,0.10
2018-01-15T07:10:49.311Z,0.10
2018-01-15T07:13:16.833Z,0.20
2018-01-15T07:15:44.460Z,0.20
2018-01-15T07:18:12.106Z,0.20
2018-01-15T07:20:39.656Z,0.20
2018-01-15T07:23:07.201Z,0.20
2018-01-15T07:25:34.702Z,0.20
2018-01-15T07:28:02.209Z,0.10
2018-01-15T07:30:29.769Z,0.10
2018-01-15T07:32:57.315Z,0.10
2018-01-15T07:35:24.847Z,0.20
2018-01-15T07:37:53.129Z,0.10
2018-01-15T07:40:21.403Z,0.20
2018-01-15T07:42:48.936Z,0.20
2018-01-15T07:45:16.567Z,0.20
2018-01-15T07:47:44.100Z,0.30
2018-01-15T07:50:12.415Z,0.50
2018-01-15T07:52:39.929Z,0.50
2018-01-15T07:55:08.264Z,0.50
2018-01-15T07:57:35.768Z,0.50
2018-01-15T08:00:04.081Z,0.70
2018-01-15T08:02:31.616Z,0.60
2018-01-15T08:04:59.168Z,0.80
2018-01-15T08:07:26.671Z,0.80
2018-01-15T08:09:54.216Z,1.00
2018-01-15T08:12:21.775Z,1.00
2018-01-15T08:14:49.299Z,1.10
2018-01-15T08:17:16.812Z,1.20
2018-01-15T08:19:44.349Z,1.30
2018-01-15T08:22:11.880Z,1.30
2018-01-15T08:24:39.407Z,1.40
2018-01-15T08:27:08.109Z,1.40
2018-01-15T08:29:36.375Z,1.50
2018-01-15T08:32:03.888Z,1.50
2018-01-15T08:34:31.404Z,1.50
2018-01-15T08:36:59.696Z,1.70
2018-01-15T08:39:27.248Z,1.70
2018-01-15T08:41:55.552Z,1.70
2018-01-15T08:44:23.075Z,1.70
2018-01-15T08:46:51.416Z,1.60
2018-01-15T08:49:19.668Z,1.50
2018-01-15T08:51:47.217Z,1.50
2018-01-15T08:54:14.726Z,1.60
2018-01-15T08:56:42.236Z,1.70
2018-01-15T08:59:09.760Z,1.80
2018-01-15T09:01:38.064Z,1.80
2018-01-15T09:04:05.593Z,1.80
2018-01-15T09:06:33.906Z,1.90
2018-01-15T09:09:01.411Z,1.90
2018-01-15T09:11:28.912Z,2.00
2018-01-15T09:13:56.442Z,2.00
2018-01-15T09:16:24.759Z,2.00
2018-01-15T09:18:52.271Z,2.00
2018-01-15T09:21:19.794Z,2.00
2018-01-15T09:23:47.304Z,2.00
2018-01-15T09:26:15.589Z,2.00
2018-01-15T09:28:43.120Z,1.90
2018-01-15T09:31:10.654Z,2.00
2018-01-15T09:33:38.205Z,1.90
2018-01-15T09:36:05.706Z,2.10
2018-01-15T09:38:33.999Z,2.10
2018-01-15T09:41:01.527Z,2.10
2018-01-15T09:43:29.037Z,2.20
2018-01-15T09:45:56.572Z,2.20
2018-01-15T09:48:24.102Z,2.10
2018-01-15T09:50:51.662Z,2.30
2018-01-15T09:53:19.210Z,2.30
2018-01-15T09:55:46.835Z,2.30
2018-01-15T09:58:14.362Z,2.40
2018-01-15T10:00:42.636Z,2.30
2018-01-15T10:03:10.935Z,2.30
2018-01-15T10:05:38.460Z,2.30
2018-01-15T10:08:06.773Z,2.30
2018-01-15T10:10:34.351Z,2.20
2018-01-15T10:13:01.858Z,2.30
2018-01-15T10:15:29.376Z,2.30
2018-01-15T10:17:56.908Z,2.40
2018-01-15T10:20:24.438Z,2.40
2018-01-15T10:22:52.758Z,2.60
2018-01-15T10:25:20.266Z,2.60
2018-01-15T10:27:47.819Z,2.70
2018-01-15T10:30:16.256Z,2.70
2018-01-15T10:32:43.765Z,2.60
2018-01-15T10:35:12.064Z,2.80
2018-01-15T10:37:39.569Z,2.70
2018-01-15T10:40:07.098Z,2.80
2018-01-15T10:42:34.614Z,2.70
2018-01-15T10:45:02.153Z,2.70
2018-01-15T10:47:29.657Z,2.80
2018-01-15T10:49:57.180Z,2.90
2018-01-15T10:52:24.727Z,3.00
2018-01-15T10:54:52.256Z,3.00
2018-01-15T10:57:20.532Z,3.00
2018-01-15T10:59:48.050Z,3.10
2018-01-15T11:02:16.347Z,3.10
2018-01-15T11:04:43.855Z,3.10
2018-01-15T11:07:11.432Z,3.10
2018-01-15T11:09:39.723Z,3.30
2018-01-15T11:12:08.008Z,3.20
2018-01-15T11:14:36.301Z,3.40
2018-01-15T11:17:03.808Z,3.40
2018-01-15T11:19:31.340Z,3.50
2018-01-15T11:21:58.862Z,3.60
2018-01-15T11:24:26.358Z,3.80
2018-01-15T11:26:53.886Z,3.90
2018-01-15T11:29:21.390Z,4.00
2018-01-15T11:31:48.945Z,3.80
2018-01-15T11:34:16.500Z,3.90
2018-01-15T11:36:44.048Z,3.90
2018-01-15T11:39:11.540Z,3.90
2018-01-15T11:41:39.846Z,4.20
2018-01-15T11:44:07.411Z,4.20
2018-01-15T11:46:34.956Z,4.20
2018-01-15T11:49:03.262Z,4.00
2018-01-15T11:51:30.809Z,4.00
2018-01-15T11:53:58.350Z,3.90
2018-01-15T11:56:26.625Z,3.90
2018-01-15T11:58:54.203Z,3.90
2018-01-15T12:01:21.726Z,3.90
2018-01-15T12:03:49.272Z,4.00
2018-01-15T12:06:16.802Z,4.10
2018-01-15T12:08:44.315Z,4.10
2018-01-15T12:11:12.646Z,4.00
2018-01-15T12:13:40.172Z,4.00
2018-01-15T12:16:07.719Z,4.20
2018-01-15T12:18:36.036Z,4.40
2018-01-15T12:21:03.606Z,4.40
2018-01-15T12:23:31.139Z,4.50
2018-01-15T12:25:58.668Z,4.30
2018-01-15T12:28:26.940Z,4.40
2018-01-15T12:30:55.262Z,4.60
2018-01-15T12:33:22.791Z,4.60
2018-01-15T12:35:50.339Z,4.60
2018-01-15T12:38:18.804Z,4.80
2018-01-15T12:40:46.303Z,4.80
2018-01-15T12:43:13.843Z,4.90
2018-01-15T12:45:41.367Z,4.90
2018-01-15T12:48:08.900Z,4.90
2018-01-15T12:50:36.409Z,4.70
2018-01-15T12:53:04.730Z,4.80
2018-01-15T12:55:32.234Z,4.80
2018-01-15T12:58:00.512Z,5.00
2018-01-15T13:00:28.051Z,5.00
2018-01-15T13:02:55.577Z,4.90
2018-01-15T13:05:35.816Z,4.80
2018-01-15T13:11:06.070Z,4.80
2018-01-15T13:13:33.592Z,4.80
2018-01-15T13:16:01.867Z,4.80
2018-01-15T13:18:30.152Z,4.90
2018-01-15T13:20:57.695Z,4.90
2018-01-15T13:23:25.235Z,5.10
2018-01-15T13:25:52.760Z,5.10
2018-01-15T13:28:20.316Z,5.20
2018-01-15T13:30:47.816Z,5.20
2018-01-15T13:33:15.390Z,5.30
2018-01-15T13:35:42.932Z,5.20
2018-01-15T13:38:10.523Z,5.10
2018-01-15T13:40:38.824Z,4.90
2018-01-15T13:43:06.351Z,5.00
2018-01-15T13:45:34.646Z,4.90
2018-01-15T13:48:02.177Z,5.00
2018-01-15T13:50:29.708Z,5.00
2018-01-15T13:52:57.234Z,4.90
2018-01-15T13:55:24.779Z,5.00
2018-01-15T13:57:52.290Z,5.00
2018-01-15T14:00:19.842Z,5.10
2018-01-15T14:02:47.365Z,5.00
2018-01-15T14:05:14.884Z,5.10
2018-01-15T14:07:42.418Z,5.10
2018-01-15T14:10:09.988Z,5.30
2018-01-15T14:12:37.548Z,5.30
2018-01-15T14:15:05.048Z,5.30
2018-01-15T14:17:32.583Z,5.30
2018-01-15T14:20:00.105Z,5.40
2018-01-15T14:22:27.656Z,5.50
2018-01-15T14:24:55.187Z,5.60
2018-01-15T14:27:22.706Z,5.60
2018-01-15T14:29:50.261Z,5.60
2018-01-15T14:32:17.923Z,5.60
2018-01-15T14:34:46.150Z,5.50
2018-01-15T14:37:14.451Z,5.70
2018-01-15T14:39:41.968Z,5.70
2018-01-15T14:42:09.499Z,5.60
2018-01-15T14:44:37.019Z,5.50
2018-01-15T14:47:05.061Z,5.40
2018-01-15T14:49:32.641Z,5.40
2018-01-15T14:52:00.915Z,5.40
2018-01-15T14:54:29.193Z,5.30
2018-01-15T14:56:56.733Z,5.30
2018-01-15T14:59:24.229Z,5.40
2018-01-15T15:01:51.744Z,5.60
2018-01-15T15:04:20.065Z,5.30
2018-01-15T15:06:47.592Z,5.30
2018-01-15T15:09:15.128Z,5.20
2018-01-15T15:11:43.404Z,5.20
2018-01-15T15:14:10.940Z,5.20
2018-01-15T15:16:39.782Z,5.10
2018-01-15T15:19:07.283Z,5.10
2018-01-15T15:21:34.823Z,5.10
2018-01-15T15:24:02.371Z,5.10
2018-01-15T15:26:29.891Z,5.10
2018-01-15T15:28:58.193Z,5.30
2018-01-15T15:31:25.717Z,5.20
2018-01-15T15:33:54.033Z,5.30
2018-01-15T15:36:21.565Z,5.30
2018-01-15T15:38:49.460Z,5.40
2018-01-15T15:41:17.031Z,5.40
2018-01-15T15:43:44.552Z,5.40
2018-01-15T15:46:12.849Z,5.30
2018-01-15T15:48:40.375Z,5.30
2018-01-15T15:51:08.683Z,5.20
2018-01-15T15:53:36.215Z,5.20
2018-01-15T15:56:04.888Z,5.30
2018-01-15T15:58:33.684Z,5.30
2018-01-15T16:01:02.029Z,5.30
2018-01-15T16:03:29.567Z,5.30
2018-01-15T16:05:57.648Z,5.30
2018-01-15T16:08:25.281Z,5.30
2018-01-15T16:10:52.874Z,5.30
2018-01-15T16:13:20.702Z,5.30
2018-01-15T16:15:48.353Z,5.30
2018-01-15T16:18:15.888Z,5.30
2018-01-15T16:20:44.418Z,5.30
2018-01-15T16:23:11.965Z,5.20
2018-01-15T16:25:39.491Z,5.30
2018-01-15T16:28:07.930Z,5.20
2018-01-15T16:30:35.527Z,5.20
2018-01-15T16:33:03.312Z,5.10
2018-01-15T16:35:31.615Z,4.90
2018-01-15T16:37:59.179Z,4.90
2018-01-15T16:40:26.717Z,4.90
2018-01-15T16:42:54.254Z,4.90
2018-01-15T16:45:22.566Z,5.60
2018-01-15T16:47:50.072Z,5.60
2018-01-15T16:50:23.372Z,5.80
2018-01-15T16:52:50.886Z,5.90
2018-01-15T16:55:18.429Z,6.20
2018-01-15T16:57:45.970Z,6.40
2018-01-15T17:00:13.495Z,6.60
2018-01-15T17:02:40.996Z,6.70
2018-01-15T17:05:08.529Z,6.80
2018-01-15T17:07:36.849Z,6.90
2018-01-15T17:10:04.374Z,6.90
2018-01-15T17:12:32.646Z,7.00
2018-01-15T17:15:00.181Z,7.00
2018-01-15T17:17:27.733Z,7.10
2018-01-15T17:19:55.295Z,7.20
2018-01-15T17:22:22.825Z,7.20
2018-01-15T17:24:50.394Z,7.30
2018-01-15T17:27:17.950Z,7.30
2018-01-15T17:29:45.486Z,7.40
2018-01-15T17:32:13.030Z,7.50
2018-01-15T17:34:40.560Z,7.50
2018-01-15T17:37:08.094Z,7.60
2018-01-15T17:39:35.641Z,7.50
2018-01-15T17:42:03.148Z,7.60
2018-01-15T17:44:31.494Z,7.60
2018-01-15T17:46:59.013Z,7.60
2018-01-15T17:49:26.574Z,7.70
2018-01-15T17:51:54.851Z,7.70
2018-01-15T17:54:22.394Z,7.60
2018-01-15T17:56:50.043Z,7.70
2018-01-15T17:59:18.323Z,7.30
2018-01-15T18:01:46.606Z,7.20
2018-01-15T18:04:14.151Z,7.20
2018-01-15T18:06:41.710Z,7.10
2018-01-15T18:09:09.220Z,7.10
2018-01-15T18:11:36.791Z,7.00
2018-01-15T18:14:04.331Z,6.80
2018-01-15T18:16:31.868Z,6.80
2018-01-15T18:18:59.399Z,6.70
2018-01-15T18:21:26.952Z,6.70
2018-01-15T18:23:54.488Z,6.70
2018-01-15T18:26:22.029Z,6.60
2018-01-15T18:28:49.585Z,6.60
2018-01-15T18:31:17.116Z,6.50
2018-01-15T18:33:45.405Z,6.40
2018-01-15T18:36:12.957Z,6.40
2018-01-15T18:38:40.505Z,6.40
2018-01-15T18:41:08.061Z,6.40
2018-01-15T18:43:36.445Z,6.40
2018-01-15T18:46:03.915Z,6.40
2018-01-15T18:48:31.409Z,6.30
2018-01-15T18:50:58.954Z,6.30
2018-01-15T18:53:26.519Z,6.20
2018-01-15T18:55:54.019Z,6.20
2018-01-15T18:58:21.644Z,6.20
2018-01-15T19:00:49.207Z,6.20
2018-01-15T19:03:16.709Z,6.20
2018-01-15T19:05:45.130Z,6.10
2018-01-15T19:08:13.075Z,6.10
2018-01-15T19:10:40.656Z,6.10
2018-01-15T19:13:09.284Z,6.10
2018-01-15T19:15:37.514Z,6.00
2018-01-15T19:18:05.164Z,6.10
2018-01-15T19:20:32.694Z,6.10
2018-01-15T19:23:00.280Z,6.10
2018-01-15T19:25:28.095Z,6.10
2018-01-15T19:27:56.182Z,6.10
2018-01-15T19:30:23.838Z,6.10
2018-01-15T19:32:51.350Z,6.10
2018-01-15T19:35:19.072Z,6.10
2018-01-15T19:37:48.596Z,6.10
2018-01-15T19:40:17.677Z,6.20
2018-01-15T19:42:46.626Z,6.10
2018-01-15T19:45:19.934Z,6.10
2018-01-15T19:47:53.177Z,6.20
2018-01-15T19:50:26.676Z,6.20
2018-01-15T19:52:59.937Z,6.10
2018-01-15T19:55:34.065Z,6.20
2018-01-15T19:58:07.542Z,6.10
2018-01-15T20:00:41.744Z,6.20
2018-01-15T20:03:15.505Z,6.20
2018-01-15T20:05:48.810Z,6.30
2018-01-15T20:08:21.879Z,6.20
2018-01-15T20:10:50.676Z,6.40
2018-01-15T20:13:18.865Z,6.30
2018-01-15T20:15:47.246Z,6.40
2018-01-15T20:18:15.453Z,6.40
2018-01-15T20:20:43.065Z,6.50
2018-01-15T20:23:10.584Z,6.40
2018-01-15T20:25:38.598Z,6.50
2018-01-15T20:28:07.541Z,6.50
2018-01-15T20:30:35.248Z,6.50
2018-01-15T20:33:02.809Z,6.50
2018-01-15T20:35:30.362Z,6.50
2018-01-15T20:37:58.328Z,6.50
2018-01-15T20:40:26.367Z,6.60
2018-01-15T20:42:53.953Z,6.50
2018-01-15T20:45:22.264Z,6.50
2018-01-15T20:47:49.874Z,6.40
2018-01-15T20:50:17.822Z,6.40
2018-01-15T20:52:45.369Z,6.50
2018-01-15T20:55:12.877Z,6.50
2018-01-15T20:57:41.167Z,6.40
2018-01-15T21:00:09.366Z,6.40
2018-01-15T21:02:37.217Z,6.50
2018-01-15T21:05:04.796Z,6.40
2018-01-15T21:07:32.296Z,6.50
2018-01-15T21:10:00.795Z,6.50
2018-01-15T21:12:28.842Z,6.40
2018-01-15T21:14:56.450Z,6.50
2018-01-15T21:17:23.959Z,6.40
2018-01-15T21:19:52.280Z,6.50
2018-01-15T21:22:19.828Z,6.50
2018-01-15T21:24:47.349Z,6.50
2018-01-15T21:27:14.975Z,6.50
2018-01-15T21:29:42.487Z,6.50
2018-01-15T21:32:11.655Z,6.50
2018-01-15T21:34:40.104Z,6.50
2018-01-15T21:37:07.630Z,6.40
2018-01-15T21:39:35.181Z,6.40
2018-01-15T21:42:03.501Z,6.40
2018-01-15T21:44:31.008Z,6.40
2018-01-15T21:46:59.300Z,6.40
2018-01-15T21:49:27.615Z,6.50
2018-01-15T21:51:55.136Z,6.40
2018-01-15T21:54:22.696Z,6.40
2018-01-15T21:56:50.209Z,6.50
2018-01-15T21:59:17.730Z,6.50
2018-01-15T22:01:45.275Z,6.50
2018-01-15T22:04:12.775Z,6.50
2018-01-15T22:06:40.272Z,6.50
2018-01-15T22:09:08.571Z,6.50
2018-01-15T22:11:36.072Z,6.50
2018-01-15T22:14:03.585Z,6.50
2018-01-15T22:16:31.094Z,6.50
2018-01-15T22:18:58.614Z,6.50
2018-01-15T22:21:26.129Z,6.50
2018-01-15T22:23:53.643Z,6.40
2018-01-15T22:26:21.178Z,6.50
2018-01-15T22:28:48.716Z,6.50
2018-01-15T22:31:16.989Z,6.50
2018-01-15T22:33:45.292Z,6.50
2018-01-15T22:36:12.818Z,6.50
2018-01-15T22:38:40.333Z,6.50
2018-01-15T22:41:07.867Z,6.50
2018-01-15T22:43:35.410Z,6.50
2018-01-15T22:46:03.698Z,6.50
2018-01-15T22:48:31.214Z,6.50
2018-01-15T22:50:58.740Z,6.40
2018-01-15T22:53:26.259Z,6.50
2018-01-15T22:55:53.756Z,6.50
2018-01-15T22:58:21.301Z,6.50
2018-01-15T23:00:48.840Z,6.50
2018-01-15T23:03:17.161Z,6.50
2018-01-15T23:05:44.693Z,6.50
2018-01-15T23:08:12.200Z,6.50
2018-01-15T23:10:39.731Z,6.50
2018-01-15T23:13:07.256Z,6.50
2018-01-15T23:15:35.554Z,6.60
2018-01-15T23:18:03.072Z,6.60
2018-01-15T23:20:30.578Z,6.60
2018-01-15T23:22:58.104Z,6.60
2018-01-15T23:25:25.628Z,6.60
2018-01-15T23:27:53.162Z,6.60
2018-01-15T23:30:20.721Z,6.60
2018-01-15T23:32:48.247Z,6.60
2018-01-15T23:35:15.753Z,6.70
2018-01-15T23:37:43.298Z,6.70
2018-01-15T23:40:10.803Z,6.70
2018-01-15T23:42:39.071Z,6.70
2018-01-15T23:45:06.627Z,6.70
2018-01-15T23:47:34.135Z,6.80
2018-01-15T23:50:01.653Z,6.70
2018-01-15T23:52:29.955Z,6.80
2018-01-15T23:54:57.480Z,6.80
2018-01-15T23:57:24.994Z,6.80
2018-01-15T23:59:52.513Z,6.80
